YWOH weather

Wongan Hills Airport
Western Australia, Australia

Public forecast

Using degrees Celsius for public forecast. Weather courtesy of forecast.io.

METAR (pilot weather report)

Closest report is RAAF Base Pearce, 60.6 nm (112.2 km) SW. Retrieved 2019/04/24 06:00 UTC (6 minutes ago):

YPEA 240600Z 08012KT CAVOK 28/05 Q1023 FM0700 11010KT CAVOK

TAF (pilot weather forecast)

Closest forecast is RAAF Base Pearce, 60.6 nm (112.2 km) SW. Retrieved 2019/04/24 06:00 UTC (6 minutes ago):

TAF YPEA 240516Z 2406/2424 11010KT CAVOK FM241600 09008KT CAVOK